sensor_id;sensor_type;location;lat;lon;timestamp;P1;durP1;ratioP1;P2;durP2;ratioP2
3967;SDS011;9221;42.646;23.380;2022-12-28T00:02:03;9.93;;;3.93;;
3967;SDS011;9221;42.646;23.380;2022-12-28T00:04:28;7.77;;;4.00;;
3967;SDS011;9221;42.646;23.380;2022-12-28T00:06:53;9.30;;;4.30;;
3967;SDS011;9221;42.646;23.380;2022-12-28T00:09:19;12.30;;;4.40;;
3967;SDS011;9221;42.646;23.380;2022-12-28T00:11:44;9.40;;;4.10;;
3967;SDS011;9221;42.646;23.380;2022-12-28T00:14:10;8.57;;;4.00;;
3967;SDS011;9221;42.646;23.380;2022-12-28T00:16:36;9.33;;;4.43;;
3967;SDS011;9221;42.646;23.380;2022-12-28T00:19:04;10.60;;;4.20;;
3967;SDS011;9221;42.646;23.380;2022-12-28T00:21:32;10.90;;;4.50;;
3967;SDS011;9221;42.646;23.380;2022-12-28T00:23:59;11.30;;;3.73;;
3967;SDS011;9221;42.646;23.380;2022-12-28T00:26:27;8.43;;;4.40;;
3967;SDS011;9221;42.646;23.380;2022-12-28T00:28:55;8.63;;;4.00;;
3967;SDS011;9221;42.646;23.380;2022-12-28T00:31:21;8.23;;;3.83;;
3967;SDS011;9221;42.646;23.380;2022-12-28T00:33:46;9.70;;;4.30;;
3967;SDS011;9221;42.646;23.380;2022-12-28T00:36:12;7.97;;;4.13;;
3967;SDS011;9221;42.646;23.380;2022-12-28T00:38:39;9.27;;;4.10;;
3967;SDS011;9221;42.646;23.380;2022-12-28T00:41:04;10.03;;;4.50;;
3967;SDS011;9221;42.646;23.380;2022-12-28T00:43:31;6.73;;;3.57;;
3967;SDS011;9221;42.646;23.380;2022-12-28T00:45:56;8.00;;;4.40;;
3967;SDS011;9221;42.646;23.380;2022-12-28T00:48:22;10.53;;;4.57;;
3967;SDS011;9221;42.646;23.380;2022-12-28T00:50:48;10.00;;;4.33;;
3967;SDS011;9221;42.646;23.380;2022-12-28T00:53:14;8.00;;;3.90;;
3967;SDS011;9221;42.646;23.380;2022-12-28T00:55:40;7.20;;;3.87;;
3967;SDS011;9221;42.646;23.380;2022-12-28T00:58:06;12.20;;;3.70;;
3967;SDS011;9221;42.646;23.380;2022-12-28T01:00:32;11.57;;;5.03;;
3967;SDS011;9221;42.646;23.380;2022-12-28T01:02:58;7.87;;;3.83;;
3967;SDS011;9221;42.646;23.380;2022-12-28T01:05:24;9.87;;;4.33;;
3967;SDS011;9221;42.646;23.380;2022-12-28T01:07:50;8.73;;;4.40;;
3967;SDS011;9221;42.646;23.380;2022-12-28T01:10:15;11.40;;;4.83;;
3967;SDS011;9221;42.646;23.380;2022-12-28T01:12:41;14.23;;;5.10;;
3967;SDS011;9221;42.646;23.380;2022-12-28T01:15:07;10.63;;;4.87;;
3967;SDS011;9221;42.646;23.380;2022-12-28T01:17:34;9.93;;;4.40;;
3967;SDS011;9221;42.646;23.380;2022-12-28T01:20:00;12.90;;;5.30;;
3967;SDS011;9221;42.646;23.380;2022-12-28T01:22:26;13.13;;;5.70;;
3967;SDS011;9221;42.646;23.380;2022-12-28T01:24:51;15.43;;;6.00;;
3967;SDS011;9221;42.646;23.380;2022-12-28T01:27:17;10.70;;;5.23;;
3967;SDS011;9221;42.646;23.380;2022-12-28T01:29:42;15.17;;;6.07;;
3967;SDS011;9221;42.646;23.380;2022-12-28T01:32:07;14.27;;;5.50;;
3967;SDS011;9221;42.646;23.380;2022-12-28T01:34:33;18.27;;;5.87;;
3967;SDS011;9221;42.646;23.380;2022-12-28T01:36:58;12.30;;;5.57;;
3967;SDS011;9221;42.646;23.380;2022-12-28T01:39:24;18.03;;;6.30;;
3967;SDS011;9221;42.646;23.380;2022-12-28T01:41:49;17.20;;;7.07;;
3967;SDS011;9221;42.646;23.380;2022-12-28T01:46:44;19.50;;;6.47;;
3967;SDS011;9221;42.646;23.380;2022-12-28T01:49:21;13.97;;;6.30;;
3967;SDS011;9221;42.646;23.380;2022-12-28T01:51:55;15.07;;;5.90;;
3967;SDS011;9221;42.646;23.380;2022-12-28T01:54:23;13.90;;;5.50;;
3967;SDS011;9221;42.646;23.380;2022-12-28T01:56:53;11.20;;;5.40;;
3967;SDS011;9221;42.646;23.380;2022-12-28T01:59:20;16.87;;;7.20;;
3967;SDS011;9221;42.646;23.380;2022-12-28T02:01:48;23.10;;;7.43;;
3967;SDS011;9221;42.646;23.380;2022-12-28T02:04:14;16.07;;;6.33;;
3967;SDS011;9221;42.646;23.380;2022-12-28T02:06:39;18.43;;;7.10;;
3967;SDS011;9221;42.646;23.380;2022-12-28T02:09:12;16.60;;;6.77;;
3967;SDS011;9221;42.646;23.380;2022-12-28T02:11:43;15.37;;;6.70;;
3967;SDS011;9221;42.646;23.380;2022-12-28T02:14:09;22.17;;;7.20;;
3967;SDS011;9221;42.646;23.380;2022-12-28T02:16:37;12.63;;;5.63;;
3967;SDS011;9221;42.646;23.380;2022-12-28T02:19:03;19.43;;;7.10;;
3967;SDS011;9221;42.646;23.380;2022-12-28T02:21:37;17.53;;;6.80;;
3967;SDS011;9221;42.646;23.380;2022-12-28T02:37:29;20.17;;;7.23;;
3967;SDS011;9221;42.646;23.380;2022-12-28T02:40:00;17.60;;;6.97;;
3967;SDS011;9221;42.646;23.380;2022-12-28T02:42:30;21.00;;;7.10;;
3967;SDS011;9221;42.646;23.380;2022-12-28T02:45:00;17.55;;;7.28;;
3967;SDS011;9221;42.646;23.380;2022-12-28T02:47:44;17.63;;;7.37;;
3967;SDS011;9221;42.646;23.380;2022-12-28T02:50:36;16.30;;;6.90;;
3967;SDS011;9221;42.646;23.380;2022-12-28T02:53:22;16.10;;;6.40;;
3967;SDS011;9221;42.646;23.380;2022-12-28T03:02:02;16.97;;;6.00;;
3967;SDS011;9221;42.646;23.380;2022-12-28T03:07:17;17.17;;;5.93;;
3967;SDS011;9221;42.646;23.380;2022-12-28T03:10:09;18.90;;;6.90;;
3967;SDS011;9221;42.646;23.380;2022-12-28T03:16:12;14.30;;;6.10;;
3967;SDS011;9221;42.646;23.380;2022-12-28T03:18:45;17.20;;;6.33;;
3967;SDS011;9221;42.646;23.380;2022-12-28T03:21:32;15.90;;;6.57;;
3967;SDS011;9221;42.646;23.380;2022-12-28T03:24:19;15.60;;;6.00;;
3967;SDS011;9221;42.646;23.380;2022-12-28T03:27:04;14.73;;;5.33;;
3967;SDS011;9221;42.646;23.380;2022-12-28T03:30:17;15.73;;;6.10;;
3967;SDS011;9221;42.646;23.380;2022-12-28T03:33:01;14.40;;;5.70;;
3967;SDS011;9221;42.646;23.380;2022-12-28T03:35:33;15.17;;;6.03;;
3967;SDS011;9221;42.646;23.380;2022-12-28T03:38:02;13.73;;;5.90;;
3967;SDS011;9221;42.646;23.380;2022-12-28T03:40:46;17.53;;;6.83;;
3967;SDS011;9221;42.646;23.380;2022-12-28T03:43:16;13.63;;;5.70;;
3967;SDS011;9221;42.646;23.380;2022-12-28T03:46:09;14.20;;;5.97;;
3967;SDS011;9221;42.646;23.380;2022-12-28T03:48:58;14.43;;;6.57;;
3967;SDS011;9221;42.646;23.380;2022-12-28T03:51:26;16.20;;;5.77;;
3967;SDS011;9221;42.646;23.380;2022-12-28T03:53:54;11.37;;;5.50;;
3967;SDS011;9221;42.646;23.380;2022-12-28T03:56:21;10.90;;;4.77;;
3967;SDS011;9221;42.646;23.380;2022-12-28T03:58:48;12.53;;;5.50;;
3967;SDS011;9221;42.646;23.380;2022-12-28T04:01:14;12.83;;;5.10;;
3967;SDS011;9221;42.646;23.380;2022-12-28T04:03:39;11.87;;;4.80;;
3967;SDS011;9221;42.646;23.380;2022-12-28T04:06:05;14.97;;;5.20;;
3967;SDS011;9221;42.646;23.380;2022-12-28T04:08:32;13.03;;;4.90;;
3967;SDS011;9221;42.646;23.380;2022-12-28T04:10:58;9.47;;;4.00;;
3967;SDS011;9221;42.646;23.380;2022-12-28T04:13:27;12.47;;;4.23;;
3967;SDS011;9221;42.646;23.380;2022-12-28T04:18:22;15.67;;;4.90;;
3967;SDS011;9221;42.646;23.380;2022-12-28T04:20:47;15.03;;;4.77;;
3967;SDS011;9221;42.646;23.380;2022-12-28T04:23:13;10.47;;;4.87;;
3967;SDS011;9221;42.646;23.380;2022-12-28T04:25:38;15.50;;;5.20;;
3967;SDS011;9221;42.646;23.380;2022-12-28T04:28:03;11.07;;;4.93;;
3967;SDS011;9221;42.646;23.380;2022-12-28T04:30:29;15.73;;;5.13;;
3967;SDS011;9221;42.646;23.380;2022-12-28T04:32:54;9.90;;;4.63;;
3967;SDS011;9221;42.646;23.380;2022-12-28T04:35:20;10.87;;;4.67;;
3967;SDS011;9221;42.646;23.380;2022-12-28T04:37:45;9.67;;;3.93;;
3967;SDS011;9221;42.646;23.380;2022-12-28T04:40:11;11.80;;;4.23;;
3967;SDS011;9221;42.646;23.380;2022-12-28T04:42:36;9.33;;;3.77;;
3967;SDS011;9221;42.646;23.380;2022-12-28T04:45:02;8.90;;;4.10;;
3967;SDS011;9221;42.646;23.380;2022-12-28T04:47:27;10.17;;;4.03;;
3967;SDS011;9221;42.646;23.380;2022-12-28T04:49:53;10.00;;;4.00;;
3967;SDS011;9221;42.646;23.380;2022-12-28T04:52:18;11.10;;;3.80;;
3967;SDS011;9221;42.646;23.380;2022-12-28T04:54:46;10.37;;;3.80;;
3967;SDS011;9221;42.646;23.380;2022-12-28T04:57:11;7.97;;;3.40;;
3967;SDS011;9221;42.646;23.380;2022-12-28T04:59:37;10.47;;;3.70;;
3967;SDS011;9221;42.646;23.380;2022-12-28T05:02:04;11.10;;;3.60;;
3967;SDS011;9221;42.646;23.380;2022-12-28T05:04:30;22.53;;;3.80;;
3967;SDS011;9221;42.646;23.380;2022-12-28T05:06:56;10.30;;;4.30;;
3967;SDS011;9221;42.646;23.380;2022-12-28T05:09:21;7.90;;;3.60;;
3967;SDS011;9221;42.646;23.380;2022-12-28T05:11:47;7.47;;;3.40;;
3967;SDS011;9221;42.646;23.380;2022-12-28T05:14:12;7.47;;;3.20;;
3967;SDS011;9221;42.646;23.380;2022-12-28T05:16:38;6.90;;;3.23;;
3967;SDS011;9221;42.646;23.380;2022-12-28T05:19:04;7.80;;;3.40;;
3967;SDS011;9221;42.646;23.380;2022-12-28T05:21:29;6.13;;;3.10;;
3967;SDS011;9221;42.646;23.380;2022-12-28T05:23:55;15.53;;;3.33;;
3967;SDS011;9221;42.646;23.380;2022-12-28T05:26:22;5.67;;;2.50;;
3967;SDS011;9221;42.646;23.380;2022-12-28T05:28:50;10.50;;;3.57;;
3967;SDS011;9221;42.646;23.380;2022-12-28T05:31:17;6.50;;;3.20;;
3967;SDS011;9221;42.646;23.380;2022-12-28T05:33:44;7.97;;;3.50;;
3967;SDS011;9221;42.646;23.380;2022-12-28T05:36:18;20.73;;;3.83;;
3967;SDS011;9221;42.646;23.380;2022-12-28T05:38:45;15.83;;;3.60;;
3967;SDS011;9221;42.646;23.380;2022-12-28T05:41:22;11.50;;;3.07;;
3967;SDS011;9221;42.646;23.380;2022-12-28T05:43:49;12.50;;;3.87;;
3967;SDS011;9221;42.646;23.380;2022-12-28T05:46:16;7.87;;;2.93;;
3967;SDS011;9221;42.646;23.380;2022-12-28T05:48:43;9.03;;;3.30;;
3967;SDS011;9221;42.646;23.380;2022-12-28T05:51:11;12.47;;;3.87;;
3967;SDS011;9221;42.646;23.380;2022-12-28T05:53:38;7.33;;;2.93;;
3967;SDS011;9221;42.646;23.380;2022-12-28T05:56:06;11.07;;;3.00;;
3967;SDS011;9221;42.646;23.380;2022-12-28T05:58:34;9.27;;;3.67;;
3967;SDS011;9221;42.646;23.380;2022-12-28T06:01:03;7.73;;;3.13;;
3967;SDS011;9221;42.646;23.380;2022-12-28T06:03:37;6.60;;;2.77;;
3967;SDS011;9221;42.646;23.380;2022-12-28T06:06:03;7.30;;;3.30;;
3967;SDS011;9221;42.646;23.380;2022-12-28T06:08:30;9.03;;;2.90;;
3967;SDS011;9221;42.646;23.380;2022-12-28T06:11:02;6.67;;;3.07;;
3967;SDS011;9221;42.646;23.380;2022-12-28T06:13:29;8.57;;;3.33;;
3967;SDS011;9221;42.646;23.380;2022-12-28T06:15:55;8.80;;;3.10;;
3967;SDS011;9221;42.646;23.380;2022-12-28T06:18:21;9.70;;;3.27;;
3967;SDS011;9221;42.646;23.380;2022-12-28T06:20:47;6.83;;;3.13;;
3967;SDS011;9221;42.646;23.380;2022-12-28T06:23:12;8.53;;;2.97;;
3967;SDS011;9221;42.646;23.380;2022-12-28T06:25:38;8.87;;;3.60;;
3967;SDS011;9221;42.646;23.380;2022-12-28T06:28:03;5.37;;;2.47;;
3967;SDS011;9221;42.646;23.380;2022-12-28T06:30:29;5.67;;;2.90;;
3967;SDS011;9221;42.646;23.380;2022-12-28T06:32:55;6.30;;;2.80;;
3967;SDS011;9221;42.646;23.380;2022-12-28T06:35:21;8.17;;;3.40;;
3967;SDS011;9221;42.646;23.380;2022-12-28T06:37:46;7.97;;;3.40;;
3967;SDS011;9221;42.646;23.380;2022-12-28T06:40:12;9.50;;;3.57;;
3967;SDS011;9221;42.646;23.380;2022-12-28T06:42:37;6.20;;;3.03;;
3967;SDS011;9221;42.646;23.380;2022-12-28T06:45:03;6.67;;;3.57;;
3967;SDS011;9221;42.646;23.380;2022-12-28T06:47:29;8.80;;;2.90;;
3967;SDS011;9221;42.646;23.380;2022-12-28T06:49:54;13.53;;;3.50;;
3967;SDS011;9221;42.646;23.380;2022-12-28T06:52:20;8.33;;;3.70;;
3967;SDS011;9221;42.646;23.380;2022-12-28T06:54:46;10.23;;;3.50;;
3967;SDS011;9221;42.646;23.380;2022-12-28T06:57:11;8.20;;;3.80;;
3967;SDS011;9221;42.646;23.380;2022-12-28T06:59:36;11.80;;;3.70;;
3967;SDS011;9221;42.646;23.380;2022-12-28T07:02:02;18.27;;;4.57;;
3967;SDS011;9221;42.646;23.380;2022-12-28T07:04:27;15.40;;;4.43;;
3967;SDS011;9221;42.646;23.380;2022-12-28T07:06:52;8.13;;;4.10;;
3967;SDS011;9221;42.646;23.380;2022-12-28T07:09:18;16.23;;;4.73;;
3967;SDS011;9221;42.646;23.380;2022-12-28T07:11:44;9.33;;;3.73;;
3967;SDS011;9221;42.646;23.380;2022-12-28T07:14:09;15.07;;;4.50;;
3967;SDS011;9221;42.646;23.380;2022-12-28T07:16:36;11.27;;;3.87;;
3967;SDS011;9221;42.646;23.380;2022-12-28T07:19:01;9.37;;;4.20;;
3967;SDS011;9221;42.646;23.380;2022-12-28T07:21:28;10.13;;;4.37;;
3967;SDS011;9221;42.646;23.380;2022-12-28T07:23:57;15.33;;;4.43;;
3967;SDS011;9221;42.646;23.380;2022-12-28T07:26:25;10.93;;;4.00;;
3967;SDS011;9221;42.646;23.380;2022-12-28T07:28:53;13.17;;;4.40;;
3967;SDS011;9221;42.646;23.380;2022-12-28T07:31:21;10.50;;;4.20;;
3967;SDS011;9221;42.646;23.380;2022-12-28T07:33:48;12.00;;;4.50;;
3967;SDS011;9221;42.646;23.380;2022-12-28T07:36:17;14.27;;;5.07;;
3967;SDS011;9221;42.646;23.380;2022-12-28T07:38:44;11.27;;;4.30;;
3967;SDS011;9221;42.646;23.380;2022-12-28T07:41:14;11.50;;;4.00;;
3967;SDS011;9221;42.646;23.380;2022-12-28T07:43:41;11.07;;;3.83;;
3967;SDS011;9221;42.646;23.380;2022-12-28T07:48:34;10.83;;;4.30;;
3967;SDS011;9221;42.646;23.380;2022-12-28T07:53:39;14.20;;;5.10;;
3967;SDS011;9221;42.646;23.380;2022-12-28T07:56:06;12.77;;;5.00;;
3967;SDS011;9221;42.646;23.380;2022-12-28T07:58:31;14.97;;;5.23;;
3967;SDS011;9221;42.646;23.380;2022-12-28T08:01:07;11.53;;;5.23;;
3967;SDS011;9221;42.646;23.380;2022-12-28T08:03:36;15.30;;;4.70;;
3967;SDS011;9221;42.646;23.380;2022-12-28T08:06:03;14.30;;;5.73;;
3967;SDS011;9221;42.646;23.380;2022-12-28T08:08:30;21.93;;;5.47;;
3967;SDS011;9221;42.646;23.380;2022-12-28T08:11:00;15.10;;;5.60;;
3967;SDS011;9221;42.646;23.380;2022-12-28T08:13:29;11.90;;;5.03;;
3967;SDS011;9221;42.646;23.380;2022-12-28T08:15:56;15.07;;;5.97;;
3967;SDS011;9221;42.646;23.380;2022-12-28T08:18:21;12.03;;;5.20;;
3967;SDS011;9221;42.646;23.380;2022-12-28T08:20:47;21.50;;;6.50;;
3967;SDS011;9221;42.646;23.380;2022-12-28T08:23:12;21.47;;;7.43;;
3967;SDS011;9221;42.646;23.380;2022-12-28T08:25:37;16.93;;;6.10;;
3967;SDS011;9221;42.646;23.380;2022-12-28T08:28:03;21.70;;;5.97;;
3967;SDS011;9221;42.646;23.380;2022-12-28T08:30:28;14.40;;;5.77;;
3967;SDS011;9221;42.646;23.380;2022-12-28T08:32:54;9.03;;;4.10;;
3967;SDS011;9221;42.646;23.380;2022-12-28T08:35:20;21.27;;;5.87;;
3967;SDS011;9221;42.646;23.380;2022-12-28T08:37:46;12.03;;;5.00;;
3967;SDS011;9221;42.646;23.380;2022-12-28T08:40:11;14.47;;;5.00;;
3967;SDS011;9221;42.646;23.380;2022-12-28T08:42:36;19.43;;;4.97;;
3967;SDS011;9221;42.646;23.380;2022-12-28T08:45:02;21.30;;;5.70;;
3967;SDS011;9221;42.646;23.380;2022-12-28T08:47:28;17.93;;;5.57;;
3967;SDS011;9221;42.646;23.380;2022-12-28T08:49:53;15.73;;;6.57;;
3967;SDS011;9221;42.646;23.380;2022-12-28T08:52:18;17.00;;;6.00;;
3967;SDS011;9221;42.646;23.380;2022-12-28T08:54:44;23.20;;;5.83;;
3967;SDS011;9221;42.646;23.380;2022-12-28T08:57:09;16.97;;;5.93;;
3967;SDS011;9221;42.646;23.380;2022-12-28T08:59:35;14.40;;;6.00;;
3967;SDS011;9221;42.646;23.380;2022-12-28T09:02:00;17.23;;;6.23;;
3967;SDS011;9221;42.646;23.380;2022-12-28T09:04:25;14.17;;;6.20;;
3967;SDS011;9221;42.646;23.380;2022-12-28T09:06:51;14.30;;;6.23;;
3967;SDS011;9221;42.646;23.380;2022-12-28T09:09:17;16.73;;;5.80;;
3967;SDS011;9221;42.646;23.380;2022-12-28T09:11:46;13.80;;;6.53;;
3967;SDS011;9221;42.646;23.380;2022-12-28T09:14:13;16.23;;;6.20;;
3967;SDS011;9221;42.646;23.380;2022-12-28T09:16:39;15.00;;;6.77;;
3967;SDS011;9221;42.646;23.380;2022-12-28T09:19:07;15.60;;;6.47;;
3967;SDS011;9221;42.646;23.380;2022-12-28T09:21:34;25.03;;;6.77;;
3967;SDS011;9221;42.646;23.380;2022-12-28T09:24:01;25.50;;;7.40;;
3967;SDS011;9221;42.646;23.380;2022-12-28T09:26:28;17.37;;;6.97;;
3967;SDS011;9221;42.646;23.380;2022-12-28T09:28:56;25.43;;;6.73;;
3967;SDS011;9221;42.646;23.380;2022-12-28T09:31:25;14.43;;;5.93;;
3967;SDS011;9221;42.646;23.380;2022-12-28T09:33:55;21.87;;;6.60;;
3967;SDS011;9221;42.646;23.380;2022-12-28T09:36:28;17.20;;;6.50;;
3967;SDS011;9221;42.646;23.380;2022-12-28T09:38:54;14.20;;;6.40;;
3967;SDS011;9221;42.646;23.380;2022-12-28T09:43:53;12.50;;;5.40;;
3967;SDS011;9221;42.646;23.380;2022-12-28T09:46:29;15.50;;;6.20;;
3967;SDS011;9221;42.646;23.380;2022-12-28T09:48:58;14.80;;;4.70;;
3967;SDS011;9221;42.646;23.380;2022-12-28T09:51:29;11.90;;;5.47;;
3967;SDS011;9221;42.646;23.380;2022-12-28T09:53:59;14.77;;;4.77;;
3967;SDS011;9221;42.646;23.380;2022-12-28T09:56:28;23.00;;;5.80;;
3967;SDS011;9221;42.646;23.380;2022-12-28T09:59:00;11.73;;;5.17;;
3967;SDS011;9221;42.646;23.380;2022-12-28T10:01:28;9.90;;;4.20;;
3967;SDS011;9221;42.646;23.380;2022-12-28T10:03:53;10.23;;;3.70;;
3967;SDS011;9221;42.646;23.380;2022-12-28T10:06:24;13.93;;;4.50;;
3967;SDS011;9221;42.646;23.380;2022-12-28T10:08:52;12.03;;;4.37;;
3967;SDS011;9221;42.646;23.380;2022-12-28T10:11:26;11.03;;;5.33;;
3967;SDS011;9221;42.646;23.380;2022-12-28T10:13:55;15.00;;;5.00;;
3967;SDS011;9221;42.646;23.380;2022-12-28T10:16:23;15.63;;;4.77;;
3967;SDS011;9221;42.646;23.380;2022-12-28T10:18:51;11.87;;;5.23;;
3967;SDS011;9221;42.646;23.380;2022-12-28T10:21:18;12.70;;;5.17;;
3967;SDS011;9221;42.646;23.380;2022-12-28T10:23:45;12.27;;;5.23;;
3967;SDS011;9221;42.646;23.380;2022-12-28T10:26:15;12.20;;;4.23;;
3967;SDS011;9221;42.646;23.380;2022-12-28T10:28:50;10.20;;;4.27;;
3967;SDS011;9221;42.646;23.380;2022-12-28T10:31:34;19.83;;;5.40;;
3967;SDS011;9221;42.646;23.380;2022-12-28T10:34:00;12.47;;;5.33;;
3967;SDS011;9221;42.646;23.380;2022-12-28T10:36:35;10.00;;;4.87;;
3967;SDS011;9221;42.646;23.380;2022-12-28T10:39:00;16.63;;;4.80;;
3967;SDS011;9221;42.646;23.380;2022-12-28T10:41:34;15.50;;;5.80;;
3967;SDS011;9221;42.646;23.380;2022-12-28T10:44:10;14.73;;;5.77;;
3967;SDS011;9221;42.646;23.380;2022-12-28T10:46:54;11.07;;;5.50;;
3967;SDS011;9221;42.646;23.380;2022-12-28T10:49:23;9.70;;;4.83;;
3967;SDS011;9221;42.646;23.380;2022-12-28T10:51:57;9.87;;;4.93;;
3967;SDS011;9221;42.646;23.380;2022-12-28T10:54:43;11.63;;;5.37;;
3967;SDS011;9221;42.646;23.380;2022-12-28T10:57:19;14.93;;;6.10;;
3967;SDS011;9221;42.646;23.380;2022-12-28T11:00:00;15.77;;;5.83;;
3967;SDS011;9221;42.646;23.380;2022-12-28T11:02:47;14.13;;;6.07;;
3967;SDS011;9221;42.646;23.380;2022-12-28T11:05:23;10.87;;;4.50;;
3967;SDS011;9221;42.646;23.380;2022-12-28T11:07:50;17.60;;;6.00;;
3967;SDS011;9221;42.646;23.380;2022-12-28T11:10:28;12.90;;;5.37;;
3967;SDS011;9221;42.646;23.380;2022-12-28T11:12:57;19.40;;;6.80;;
3967;SDS011;9221;42.646;23.380;2022-12-28T11:15:28;15.17;;;6.80;;
3967;SDS011;9221;42.646;23.380;2022-12-28T11:17:59;18.30;;;5.90;;
3967;SDS011;9221;42.646;23.380;2022-12-28T11:20:32;17.40;;;5.70;;
3967;SDS011;9221;42.646;23.380;2022-12-28T11:23:00;16.47;;;6.97;;
3967;SDS011;9221;42.646;23.380;2022-12-28T11:25:30;13.60;;;6.13;;
3967;SDS011;9221;42.646;23.380;2022-12-28T11:27:58;17.80;;;5.57;;
3967;SDS011;9221;42.646;23.380;2022-12-28T11:30:25;18.70;;;7.47;;
3967;SDS011;9221;42.646;23.380;2022-12-28T11:32:56;15.30;;;6.73;;
3967;SDS011;9221;42.646;23.380;2022-12-28T11:35:28;23.13;;;7.03;;
3967;SDS011;9221;42.646;23.380;2022-12-28T11:37:57;19.40;;;7.10;;
3967;SDS011;9221;42.646;23.380;2022-12-28T11:45:55;19.00;;;6.40;;
3967;SDS011;9221;42.646;23.380;2022-12-28T11:51:20;19.73;;;8.03;;
3967;SDS011;9221;42.646;23.380;2022-12-28T11:54:01;21.70;;;8.13;;
3967;SDS011;9221;42.646;23.380;2022-12-28T11:59:24;19.53;;;6.87;;
3967;SDS011;9221;42.646;23.380;2022-12-28T12:01:58;19.97;;;7.53;;
3967;SDS011;9221;42.646;23.380;2022-12-28T12:04:28;25.70;;;8.63;;
3967;SDS011;9221;42.646;23.380;2022-12-28T12:14:27;23.17;;;8.40;;
3967;SDS011;9221;42.646;23.380;2022-12-28T12:17:00;19.50;;;9.10;;
3967;SDS011;9221;42.646;23.380;2022-12-28T12:19:29;21.13;;;7.80;;
3967;SDS011;9221;42.646;23.380;2022-12-28T12:22:46;21.20;;;7.50;;
3967;SDS011;9221;42.646;23.380;2022-12-28T12:24:55;25.37;;;8.80;;
3967;SDS011;9221;42.646;23.380;2022-12-28T12:27:47;21.00;;;6.90;;
3967;SDS011;9221;42.646;23.380;2022-12-28T12:30:18;34.07;;;9.90;;
3967;SDS011;9221;42.646;23.380;2022-12-28T12:35:27;20.80;;;7.63;;
3967;SDS011;9221;42.646;23.380;2022-12-28T12:51:35;27.57;;;8.73;;
3967;SDS011;9221;42.646;23.380;2022-12-28T12:57:18;18.20;;;7.17;;
3967;SDS011;9221;42.646;23.380;2022-12-28T13:00:04;17.53;;;7.60;;
3967;SDS011;9221;42.646;23.380;2022-12-28T13:05:15;30.97;;;8.50;;
3967;SDS011;9221;42.646;23.380;2022-12-28T13:07:43;24.53;;;8.27;;
3967;SDS011;9221;42.646;23.380;2022-12-28T13:10:13;20.70;;;7.60;;
3967;SDS011;9221;42.646;23.380;2022-12-28T13:12:43;27.00;;;8.90;;
3967;SDS011;9221;42.646;23.380;2022-12-28T13:15:16;24.73;;;8.57;;
3967;SDS011;9221;42.646;23.380;2022-12-28T13:17:58;18.80;;;7.00;;
3967;SDS011;9221;42.646;23.380;2022-12-28T13:20:31;16.33;;;7.57;;
3967;SDS011;9221;42.646;23.380;2022-12-28T13:22:57;26.73;;;7.97;;
3967;SDS011;9221;42.646;23.380;2022-12-28T13:27:49;23.60;;;8.03;;
3967;SDS011;9221;42.646;23.380;2022-12-28T13:30:18;19.30;;;6.83;;
3967;SDS011;9221;42.646;23.380;2022-12-28T13:32:49;24.63;;;8.33;;
3967;SDS011;9221;42.646;23.380;2022-12-28T13:35:19;21.20;;;7.80;;
3967;SDS011;9221;42.646;23.380;2022-12-28T13:40:26;21.87;;;8.03;;
3967;SDS011;9221;42.646;23.380;2022-12-28T13:45:31;19.50;;;7.20;;
3967;SDS011;9221;42.646;23.380;2022-12-28T13:47:58;20.07;;;8.60;;
3967;SDS011;9221;42.646;23.380;2022-12-28T13:50:26;22.80;;;7.73;;
3967;SDS011;9221;42.646;23.380;2022-12-28T13:52:57;19.33;;;8.17;;
3967;SDS011;9221;42.646;23.380;2022-12-28T13:55:32;20.60;;;8.23;;
3967;SDS011;9221;42.646;23.380;2022-12-28T13:58:02;20.50;;;7.77;;
3967;SDS011;9221;42.646;23.380;2022-12-28T14:00:38;23.53;;;8.10;;
3967;SDS011;9221;42.646;23.380;2022-12-28T14:03:10;25.90;;;8.37;;
3967;SDS011;9221;42.646;23.380;2022-12-28T14:05:38;24.87;;;8.30;;
3967;SDS011;9221;42.646;23.380;2022-12-28T14:08:07;26.50;;;8.37;;
3967;SDS011;9221;42.646;23.380;2022-12-28T14:10:33;17.77;;;7.53;;
3967;SDS011;9221;42.646;23.380;2022-12-28T14:13:00;26.83;;;7.97;;
3967;SDS011;9221;42.646;23.380;2022-12-28T14:15:27;29.40;;;7.53;;
3967;SDS011;9221;42.646;23.380;2022-12-28T14:17:53;21.93;;;7.63;;
3967;SDS011;9221;42.646;23.380;2022-12-28T14:20:19;22.67;;;8.30;;
3967;SDS011;9221;42.646;23.380;2022-12-28T14:22:45;21.80;;;8.03;;
3967;SDS011;9221;42.646;23.380;2022-12-28T14:25:14;25.37;;;8.07;;
3967;SDS011;9221;42.646;23.380;2022-12-28T14:28:02;25.30;;;7.77;;
3967;SDS011;9221;42.646;23.380;2022-12-28T14:30:37;21.90;;;8.20;;
3967;SDS011;9221;42.646;23.380;2022-12-28T14:33:11;19.47;;;7.60;;
3967;SDS011;9221;42.646;23.380;2022-12-28T14:35:43;23.33;;;8.30;;
3967;SDS011;9221;42.646;23.380;2022-12-28T14:38:16;27.23;;;8.70;;
3967;SDS011;9221;42.646;23.380;2022-12-28T14:40:47;21.80;;;8.40;;
3967;SDS011;9221;42.646;23.380;2022-12-28T14:43:30;18.37;;;7.57;;
3967;SDS011;9221;42.646;23.380;2022-12-28T14:45:57;21.53;;;8.03;;
3967;SDS011;9221;42.646;23.380;2022-12-28T14:48:39;29.10;;;9.37;;
3967;SDS011;9221;42.646;23.380;2022-12-28T14:53:40;25.13;;;8.13;;
3967;SDS011;9221;42.646;23.380;2022-12-28T14:56:07;19.47;;;7.23;;
3967;SDS011;9221;42.646;23.380;2022-12-28T15:01:22;19.20;;;6.80;;
3967;SDS011;9221;42.646;23.380;2022-12-28T15:03:59;21.03;;;7.67;;
3967;SDS011;9221;42.646;23.380;2022-12-28T15:06:26;24.03;;;7.70;;
3967;SDS011;9221;42.646;23.380;2022-12-28T15:09:11;20.60;;;7.87;;
3967;SDS011;9221;42.646;23.380;2022-12-28T15:11:36;17.40;;;6.50;;
3967;SDS011;9221;42.646;23.380;2022-12-28T15:14:01;35.97;;;7.87;;
3967;SDS011;9221;42.646;23.380;2022-12-28T15:16:27;21.70;;;7.47;;
3967;SDS011;9221;42.646;23.380;2022-12-28T15:18:52;22.67;;;8.60;;
3967;SDS011;9221;42.646;23.380;2022-12-28T15:21:19;25.90;;;7.50;;
3967;SDS011;9221;42.646;23.380;2022-12-28T15:23:49;18.07;;;7.00;;
3967;SDS011;9221;42.646;23.380;2022-12-28T15:26:15;20.13;;;7.70;;
3967;SDS011;9221;42.646;23.380;2022-12-28T15:28:40;19.80;;;7.77;;
3967;SDS011;9221;42.646;23.380;2022-12-28T15:31:16;28.50;;;8.10;;
3967;SDS011;9221;42.646;23.380;2022-12-28T15:33:44;19.50;;;7.13;;
3967;SDS011;9221;42.646;23.380;2022-12-28T15:36:17;21.87;;;7.20;;
3967;SDS011;9221;42.646;23.380;2022-12-28T15:38:47;25.30;;;8.13;;
3967;SDS011;9221;42.646;23.380;2022-12-28T15:41:13;27.10;;;8.70;;
3967;SDS011;9221;42.646;23.380;2022-12-28T15:43:58;21.43;;;7.97;;
3967;SDS011;9221;42.646;23.380;2022-12-28T15:46:23;25.40;;;9.03;;
3967;SDS011;9221;42.646;23.380;2022-12-28T15:48:49;24.23;;;7.40;;
3967;SDS011;9221;42.646;23.380;2022-12-28T15:51:14;21.70;;;8.33;;
3967;SDS011;9221;42.646;23.380;2022-12-28T15:53:41;26.57;;;8.83;;
3967;SDS011;9221;42.646;23.380;2022-12-28T15:56:15;26.50;;;9.37;;
3967;SDS011;9221;42.646;23.380;2022-12-28T15:58:44;22.60;;;9.27;;
3967;SDS011;9221;42.646;23.380;2022-12-28T16:01:10;34.57;;;9.30;;
3967;SDS011;9221;42.646;23.380;2022-12-28T16:03:35;28.10;;;7.87;;
3967;SDS011;9221;42.646;23.380;2022-12-28T16:06:00;28.90;;;8.83;;
3967;SDS011;9221;42.646;23.380;2022-12-28T16:08:27;27.67;;;9.70;;
3967;SDS011;9221;42.646;23.380;2022-12-28T16:10:53;25.17;;;9.33;;
3967;SDS011;9221;42.646;23.380;2022-12-28T16:13:19;34.43;;;10.50;;
3967;SDS011;9221;42.646;23.380;2022-12-28T16:15:45;27.73;;;9.77;;
3967;SDS011;9221;42.646;23.380;2022-12-28T16:18:10;24.53;;;9.90;;
3967;SDS011;9221;42.646;23.380;2022-12-28T16:20:35;28.73;;;10.23;;
3967;SDS011;9221;42.646;23.380;2022-12-28T16:23:01;28.77;;;9.63;;
3967;SDS011;9221;42.646;23.380;2022-12-28T16:25:26;26.20;;;9.73;;
3967;SDS011;9221;42.646;23.380;2022-12-28T16:27:51;32.47;;;9.90;;
3967;SDS011;9221;42.646;23.380;2022-12-28T16:30:17;26.50;;;10.57;;
3967;SDS011;9221;42.646;23.380;2022-12-28T16:32:42;37.60;;;11.30;;
3967;SDS011;9221;42.646;23.380;2022-12-28T16:35:08;33.93;;;11.87;;